sensor_id;sensor_type;location;lat;lon;timestamp;temperature;humidity
11089;DHT22;5598;48.648;8.908;2024-02-04T00:01:00;7.50;99.90
11089;DHT22;5598;48.648;8.908;2024-02-04T00:03:27;7.50;99.90
11089;DHT22;5598;48.648;8.908;2024-02-04T00:05:54;7.50;99.90
11089;DHT22;5598;48.648;8.908;2024-02-04T00:08:22;7.60;99.90
11089;DHT22;5598;48.648;8.908;2024-02-04T00:10:49;7.60;99.90
11089;DHT22;5598;48.648;8.908;2024-02-04T00:13:16;7.60;99.90
11089;DHT22;5598;48.648;8.908;2024-02-04T00:15:43;7.50;99.90
11089;DHT22;5598;48.648;8.908;2024-02-04T00:18:10;7.50;99.90
11089;DHT22;5598;48.648;8.908;2024-02-04T00:20:36;7.50;99.90
11089;DHT22;5598;48.648;8.908;2024-02-04T00:23:03;7.50;99.90
11089;DHT22;5598;48.648;8.908;2024-02-04T00:25:31;7.50;99.90
11089;DHT22;5598;48.648;8.908;2024-02-04T00:27:59;7.50;99.90
11089;DHT22;5598;48.648;8.908;2024-02-04T00:30:26;7.60;99.90
11089;DHT22;5598;48.648;8.908;2024-02-04T00:32:53;7.50;99.90
11089;DHT22;5598;48.648;8.908;2024-02-04T00:35:19;7.50;99.90
11089;DHT22;5598;48.648;8.908;2024-02-04T00:37:46;7.50;99.90
11089;DHT22;5598;48.648;8.908;2024-02-04T00:40:14;7.50;99.90
11089;DHT22;5598;48.648;8.908;2024-02-04T00:42:42;7.40;99.90
11089;DHT22;5598;48.648;8.908;2024-02-04T00:45:09;7.40;99.90
11089;DHT22;5598;48.648;8.908;2024-02-04T00:47:36;7.40;99.90
11089;DHT22;5598;48.648;8.908;2024-02-04T00:50:03;7.30;99.90
11089;DHT22;5598;48.648;8.908;2024-02-04T00:52:30;7.30;99.90
11089;DHT22;5598;48.648;8.908;2024-02-04T00:54:57;7.40;99.90
11089;DHT22;5598;48.648;8.908;2024-02-04T00:57:24;7.30;99.90
11089;DHT22;5598;48.648;8.908;2024-02-04T00:59:52;7.30;99.90
11089;DHT22;5598;48.648;8.908;2024-02-04T01:02:19;7.30;99.90
11089;DHT22;5598;48.648;8.908;2024-02-04T01:04:46;7.30;99.90
11089;DHT22;5598;48.648;8.908;2024-02-04T01:07:14;7.30;99.90
11089;DHT22;5598;48.648;8.908;2024-02-04T01:09:40;7.30;99.90
11089;DHT22;5598;48.648;8.908;2024-02-04T01:12:08;7.20;99.90
11089;DHT22;5598;48.648;8.908;2024-02-04T01:14:35;7.20;99.90
11089;DHT22;5598;48.648;8.908;2024-02-04T01:17:03;7.20;99.90
11089;DHT22;5598;48.648;8.908;2024-02-04T01:19:30;7.20;99.90
11089;DHT22;5598;48.648;8.908;2024-02-04T01:21:57;7.10;99.90
11089;DHT22;5598;48.648;8.908;2024-02-04T01:24:24;7.10;99.90
11089;DHT22;5598;48.648;8.908;2024-02-04T01:26:51;7.10;99.90
11089;DHT22;5598;48.648;8.908;2024-02-04T01:29:18;7.10;99.90
11089;DHT22;5598;48.648;8.908;2024-02-04T01:31:45;7.00;99.90
11089;DHT22;5598;48.648;8.908;2024-02-04T01:34:13;7.00;99.90
11089;DHT22;5598;48.648;8.908;2024-02-04T01:36:40;7.00;99.90
11089;DHT22;5598;48.648;8.908;2024-02-04T01:39:06;7.00;99.90
11089;DHT22;5598;48.648;8.908;2024-02-04T01:41:33;7.00;99.90
11089;DHT22;5598;48.648;8.908;2024-02-04T01:44:00;6.90;99.90
11089;DHT22;5598;48.648;8.908;2024-02-04T01:46:27;6.90;99.90
11089;DHT22;5598;48.648;8.908;2024-02-04T01:48:54;6.90;99.90
11089;DHT22;5598;48.648;8.908;2024-02-04T01:51:22;6.90;99.90
11089;DHT22;5598;48.648;8.908;2024-02-04T01:53:49;6.90;99.90
11089;DHT22;5598;48.648;8.908;2024-02-04T01:56:17;6.90;99.90
11089;DHT22;5598;48.648;8.908;2024-02-04T01:58:44;6.90;99.90
11089;DHT22;5598;48.648;8.908;2024-02-04T02:01:13;6.90;99.90
11089;DHT22;5598;48.648;8.908;2024-02-04T02:03:39;6.90;99.90
11089;DHT22;5598;48.648;8.908;2024-02-04T02:06:06;6.90;99.90
11089;DHT22;5598;48.648;8.908;2024-02-04T02:08:38;6.90;99.90
11089;DHT22;5598;48.648;8.908;2024-02-04T02:11:10;6.90;99.90
11089;DHT22;5598;48.648;8.908;2024-02-04T02:13:39;6.90;99.90
11089;DHT22;5598;48.648;8.908;2024-02-04T02:16:10;6.90;99.90
11089;DHT22;5598;48.648;8.908;2024-02-04T02:18:42;6.90;99.90
11089;DHT22;5598;48.648;8.908;2024-02-04T02:21:19;6.80;99.90
11089;DHT22;5598;48.648;8.908;2024-02-04T02:24:01;6.80;99.90
11089;DHT22;5598;48.648;8.908;2024-02-04T02:26:31;6.80;99.90
11089;DHT22;5598;48.648;8.908;2024-02-04T02:28:59;6.80;99.90
11089;DHT22;5598;48.648;8.908;2024-02-04T02:31:26;6.90;99.90
11089;DHT22;5598;48.648;8.908;2024-02-04T02:33:52;6.80;99.90
11089;DHT22;5598;48.648;8.908;2024-02-04T02:36:21;6.80;99.90
11089;DHT22;5598;48.648;8.908;2024-02-04T02:38:56;6.80;99.90
11089;DHT22;5598;48.648;8.908;2024-02-04T02:41:26;6.80;99.90
11089;DHT22;5598;48.648;8.908;2024-02-04T02:43:56;6.80;99.90
11089;DHT22;5598;48.648;8.908;2024-02-04T02:46:24;6.70;99.90
11089;DHT22;5598;48.648;8.908;2024-02-04T02:48:50;6.70;99.90
11089;DHT22;5598;48.648;8.908;2024-02-04T02:51:17;6.70;99.90
11089;DHT22;5598;48.648;8.908;2024-02-04T02:53:44;6.70;99.90
11089;DHT22;5598;48.648;8.908;2024-02-04T02:56:11;6.70;99.90
11089;DHT22;5598;48.648;8.908;2024-02-04T02:58:38;6.70;99.90
11089;DHT22;5598;48.648;8.908;2024-02-04T03:01:06;6.70;99.90
11089;DHT22;5598;48.648;8.908;2024-02-04T03:03:33;6.70;99.90
11089;DHT22;5598;48.648;8.908;2024-02-04T03:06:00;6.70;99.90
11089;DHT22;5598;48.648;8.908;2024-02-04T03:08:26;6.70;99.90
11089;DHT22;5598;48.648;8.908;2024-02-04T03:10:53;6.70;99.90
11089;DHT22;5598;48.648;8.908;2024-02-04T03:13:20;6.70;99.90
11089;DHT22;5598;48.648;8.908;2024-02-04T03:15:47;6.70;99.90
11089;DHT22;5598;48.648;8.908;2024-02-04T03:18:15;6.70;99.90
11089;DHT22;5598;48.648;8.908;2024-02-04T03:20:42;6.70;99.90
11089;DHT22;5598;48.648;8.908;2024-02-04T03:23:09;6.70;99.90
11089;DHT22;5598;48.648;8.908;2024-02-04T03:25:36;6.70;99.90
11089;DHT22;5598;48.648;8.908;2024-02-04T03:28:03;6.80;99.90
11089;DHT22;5598;48.648;8.908;2024-02-04T03:30:30;6.80;99.90
11089;DHT22;5598;48.648;8.908;2024-02-04T03:32:57;6.80;99.90
11089;DHT22;5598;48.648;8.908;2024-02-04T03:35:25;6.80;99.90
11089;DHT22;5598;48.648;8.908;2024-02-04T03:37:52;6.80;99.90
11089;DHT22;5598;48.648;8.908;2024-02-04T03:40:18;6.80;99.90
11089;DHT22;5598;48.648;8.908;2024-02-04T03:42:49;6.80;99.90
11089;DHT22;5598;48.648;8.908;2024-02-04T03:45:17;6.80;99.90
11089;DHT22;5598;48.648;8.908;2024-02-04T03:47:43;6.80;99.90
11089;DHT22;5598;48.648;8.908;2024-02-04T03:50:10;6.80;99.90
11089;DHT22;5598;48.648;8.908;2024-02-04T03:52:39;6.80;99.90
11089;DHT22;5598;48.648;8.908;2024-02-04T03:55:06;6.80;99.90
11089;DHT22;5598;48.648;8.908;2024-02-04T03:57:33;6.70;99.90
11089;DHT22;5598;48.648;8.908;2024-02-04T04:00:00;6.70;99.90
11089;DHT22;5598;48.648;8.908;2024-02-04T04:02:27;6.70;99.90
11089;DHT22;5598;48.648;8.908;2024-02-04T04:04:53;6.70;99.90
11089;DHT22;5598;48.648;8.908;2024-02-04T04:07:20;6.70;99.90
11089;DHT22;5598;48.648;8.908;2024-02-04T04:09:48;6.70;99.90
11089;DHT22;5598;48.648;8.908;2024-02-04T04:12:15;6.70;99.90
11089;DHT22;5598;48.648;8.908;2024-02-04T04:14:42;6.70;99.90
11089;DHT22;5598;48.648;8.908;2024-02-04T04:17:09;6.70;99.90
11089;DHT22;5598;48.648;8.908;2024-02-04T04:19:35;6.60;99.90
11089;DHT22;5598;48.648;8.908;2024-02-04T04:22:03;6.60;99.90
11089;DHT22;5598;48.648;8.908;2024-02-04T04:24:30;6.60;99.90
11089;DHT22;5598;48.648;8.908;2024-02-04T04:26:58;6.60;99.90
11089;DHT22;5598;48.648;8.908;2024-02-04T04:29:25;6.60;99.90
11089;DHT22;5598;48.648;8.908;2024-02-04T04:31:52;6.60;99.90
11089;DHT22;5598;48.648;8.908;2024-02-04T04:34:18;6.70;99.90
11089;DHT22;5598;48.648;8.908;2024-02-04T04:36:45;6.60;99.90
11089;DHT22;5598;48.648;8.908;2024-02-04T04:39:12;6.70;99.90
11089;DHT22;5598;48.648;8.908;2024-02-04T04:41:39;6.70;99.90
11089;DHT22;5598;48.648;8.908;2024-02-04T04:44:08;6.70;99.90
11089;DHT22;5598;48.648;8.908;2024-02-04T04:46:37;6.70;99.90
11089;DHT22;5598;48.648;8.908;2024-02-04T04:49:05;6.60;99.90
11089;DHT22;5598;48.648;8.908;2024-02-04T04:51:31;6.60;99.90
11089;DHT22;5598;48.648;8.908;2024-02-04T04:53:58;6.60;99.90
11089;DHT22;5598;48.648;8.908;2024-02-04T04:56:25;6.60;99.90
11089;DHT22;5598;48.648;8.908;2024-02-04T04:58:52;6.60;99.90
11089;DHT22;5598;48.648;8.908;2024-02-04T05:01:20;6.60;99.90
11089;DHT22;5598;48.648;8.908;2024-02-04T05:03:47;6.50;99.90
11089;DHT22;5598;48.648;8.908;2024-02-04T05:06:14;6.50;99.90
11089;DHT22;5598;48.648;8.908;2024-02-04T05:08:41;6.40;99.90
11089;DHT22;5598;48.648;8.908;2024-02-04T05:11:08;6.40;99.90
11089;DHT22;5598;48.648;8.908;2024-02-04T05:13:34;6.40;99.90
11089;DHT22;5598;48.648;8.908;2024-02-04T05:16:01;6.40;99.90
11089;DHT22;5598;48.648;8.908;2024-02-04T05:18:29;6.50;99.90
11089;DHT22;5598;48.648;8.908;2024-02-04T05:20:56;6.50;99.90
11089;DHT22;5598;48.648;8.908;2024-02-04T05:23:23;6.50;99.90
11089;DHT22;5598;48.648;8.908;2024-02-04T05:25:50;6.50;99.90
11089;DHT22;5598;48.648;8.908;2024-02-04T05:28:16;6.50;99.90
11089;DHT22;5598;48.648;8.908;2024-02-04T05:30:43;6.40;99.90
11089;DHT22;5598;48.648;8.908;2024-02-04T05:33:13;6.50;99.90
11089;DHT22;5598;48.648;8.908;2024-02-04T05:35:41;6.50;99.90
11089;DHT22;5598;48.648;8.908;2024-02-04T05:38:09;6.50;99.90
11089;DHT22;5598;48.648;8.908;2024-02-04T05:40:36;6.50;99.90
11089;DHT22;5598;48.648;8.908;2024-02-04T05:43:03;6.50;99.90
11089;DHT22;5598;48.648;8.908;2024-02-04T05:45:32;6.60;99.90
11089;DHT22;5598;48.648;8.908;2024-02-04T05:47:59;6.50;99.90
11089;DHT22;5598;48.648;8.908;2024-02-04T05:50:26;6.50;99.90
11089;DHT22;5598;48.648;8.908;2024-02-04T05:52:54;6.50;99.90
11089;DHT22;5598;48.648;8.908;2024-02-04T05:55:20;6.60;99.90
11089;DHT22;5598;48.648;8.908;2024-02-04T05:57:47;6.50;99.90
11089;DHT22;5598;48.648;8.908;2024-02-04T06:00:15;6.60;99.90
11089;DHT22;5598;48.648;8.908;2024-02-04T06:02:42;6.60;99.90
11089;DHT22;5598;48.648;8.908;2024-02-04T06:05:09;6.60;99.90
11089;DHT22;5598;48.648;8.908;2024-02-04T06:07:36;6.50;99.90
11089;DHT22;5598;48.648;8.908;2024-02-04T06:10:08;6.60;99.90
11089;DHT22;5598;48.648;8.908;2024-02-04T06:12:35;6.60;99.90
11089;DHT22;5598;48.648;8.908;2024-02-04T06:15:02;6.60;99.90
11089;DHT22;5598;48.648;8.908;2024-02-04T06:17:28;6.60;99.90
11089;DHT22;5598;48.648;8.908;2024-02-04T06:19:55;6.60;99.90
11089;DHT22;5598;48.648;8.908;2024-02-04T06:22:25;6.60;99.90
11089;DHT22;5598;48.648;8.908;2024-02-04T06:24:51;6.50;99.90
11089;DHT22;5598;48.648;8.908;2024-02-04T06:27:19;6.60;99.90
11089;DHT22;5598;48.648;8.908;2024-02-04T06:29:46;6.50;99.90
11089;DHT22;5598;48.648;8.908;2024-02-04T06:32:13;6.60;99.90
11089;DHT22;5598;48.648;8.908;2024-02-04T06:34:40;6.60;99.90
11089;DHT22;5598;48.648;8.908;2024-02-04T06:37:07;6.60;99.90
11089;DHT22;5598;48.648;8.908;2024-02-04T06:39:33;6.60;99.90
11089;DHT22;5598;48.648;8.908;2024-02-04T06:42:00;6.60;99.90
11089;DHT22;5598;48.648;8.908;2024-02-04T06:44:28;6.60;99.90
11089;DHT22;5598;48.648;8.908;2024-02-04T06:46:55;6.60;99.90
11089;DHT22;5598;48.648;8.908;2024-02-04T06:49:22;6.60;99.90
11089;DHT22;5598;48.648;8.908;2024-02-04T06:51:49;6.70;99.90
11089;DHT22;5598;48.648;8.908;2024-02-04T06:54:17;6.60;99.90
11089;DHT22;5598;48.648;8.908;2024-02-04T06:56:44;6.60;99.90
11089;DHT22;5598;48.648;8.908;2024-02-04T06:59:11;6.70;99.90
11089;DHT22;5598;48.648;8.908;2024-02-04T07:01:39;6.70;99.90
11089;DHT22;5598;48.648;8.908;2024-02-04T07:04:06;6.70;99.90
11089;DHT22;5598;48.648;8.908;2024-02-04T07:06:33;6.70;99.90
11089;DHT22;5598;48.648;8.908;2024-02-04T07:09:00;6.70;99.90
11089;DHT22;5598;48.648;8.908;2024-02-04T07:11:27;6.70;99.90
11089;DHT22;5598;48.648;8.908;2024-02-04T07:13:53;6.70;99.90
11089;DHT22;5598;48.648;8.908;2024-02-04T07:16:24;6.70;99.90
11089;DHT22;5598;48.648;8.908;2024-02-04T07:18:53;6.70;99.90
11089;DHT22;5598;48.648;8.908;2024-02-04T07:21:20;6.80;99.90
11089;DHT22;5598;48.648;8.908;2024-02-04T07:23:47;6.70;99.90
11089;DHT22;5598;48.648;8.908;2024-02-04T07:26:14;6.80;99.90
11089;DHT22;5598;48.648;8.908;2024-02-04T07:28:40;6.80;99.90
11089;DHT22;5598;48.648;8.908;2024-02-04T07:31:07;6.80;99.90
11089;DHT22;5598;48.648;8.908;2024-02-04T07:33:34;6.80;99.90
11089;DHT22;5598;48.648;8.908;2024-02-04T07:36:02;6.80;99.90
11089;DHT22;5598;48.648;8.908;2024-02-04T07:38:29;6.80;99.90
11089;DHT22;5598;48.648;8.908;2024-02-04T07:40:56;6.80;99.90
11089;DHT22;5598;48.648;8.908;2024-02-04T07:43:24;6.80;99.90
11089;DHT22;5598;48.648;8.908;2024-02-04T07:45:51;6.80;99.90
11089;DHT22;5598;48.648;8.908;2024-02-04T07:48:18;6.80;99.90
11089;DHT22;5598;48.648;8.908;2024-02-04T07:50:45;6.80;99.90
11089;DHT22;5598;48.648;8.908;2024-02-04T07:53:14;6.80;99.90
11089;DHT22;5598;48.648;8.908;2024-02-04T07:55:40;6.80;99.90
11089;DHT22;5598;48.648;8.908;2024-02-04T07:58:07;6.80;99.90
11089;DHT22;5598;48.648;8.908;2024-02-04T08:00:34;6.90;99.90
11089;DHT22;5598;48.648;8.908;2024-02-04T08:03:01;6.90;99.90
11089;DHT22;5598;48.648;8.908;2024-02-04T08:05:28;7.00;99.90
11089;DHT22;5598;48.648;8.908;2024-02-04T08:07:54;7.00;99.90
11089;DHT22;5598;48.648;8.908;2024-02-04T08:10:23;7.00;99.90
11089;DHT22;5598;48.648;8.908;2024-02-04T08:12:49;7.00;99.90
11089;DHT22;5598;48.648;8.908;2024-02-04T08:15:17;7.10;99.90
11089;DHT22;5598;48.648;8.908;2024-02-04T08:17:45;7.20;99.90
11089;DHT22;5598;48.648;8.908;2024-02-04T08:20:12;7.30;99.90
11089;DHT22;5598;48.648;8.908;2024-02-04T08:22:39;7.40;99.90
11089;DHT22;5598;48.648;8.908;2024-02-04T08:25:06;7.50;99.90
11089;DHT22;5598;48.648;8.908;2024-02-04T08:27:37;7.70;99.90
11089;DHT22;5598;48.648;8.908;2024-02-04T08:30:05;7.80;99.90
11089;DHT22;5598;48.648;8.908;2024-02-04T08:32:32;7.80;99.90
11089;DHT22;5598;48.648;8.908;2024-02-04T08:34:59;7.80;99.90
11089;DHT22;5598;48.648;8.908;2024-02-04T08:37:26;7.90;99.90
11089;DHT22;5598;48.648;8.908;2024-02-04T08:39:53;8.00;99.90
11089;DHT22;5598;48.648;8.908;2024-02-04T08:42:20;8.20;99.90
11089;DHT22;5598;48.648;8.908;2024-02-04T08:44:48;8.30;99.90
11089;DHT22;5598;48.648;8.908;2024-02-04T08:47:15;8.30;99.90
11089;DHT22;5598;48.648;8.908;2024-02-04T08:49:42;8.40;99.90
11089;DHT22;5598;48.648;8.908;2024-02-04T08:52:10;8.50;99.90
11089;DHT22;5598;48.648;8.908;2024-02-04T08:54:36;8.60;99.90
11089;DHT22;5598;48.648;8.908;2024-02-04T08:57:03;8.60;99.90
11089;DHT22;5598;48.648;8.908;2024-02-04T08:59:30;8.70;99.90
11089;DHT22;5598;48.648;8.908;2024-02-04T09:01:58;8.70;99.90
11089;DHT22;5598;48.648;8.908;2024-02-04T09:04:25;8.80;99.90
11089;DHT22;5598;48.648;8.908;2024-02-04T09:06:52;8.80;99.90
11089;DHT22;5598;48.648;8.908;2024-02-04T09:09:19;8.70;99.90
11089;DHT22;5598;48.648;8.908;2024-02-04T09:11:46;8.70;99.90
11089;DHT22;5598;48.648;8.908;2024-02-04T09:14:12;8.70;99.90
11089;DHT22;5598;48.648;8.908;2024-02-04T09:16:39;8.80;99.90
11089;DHT22;5598;48.648;8.908;2024-02-04T09:19:07;8.80;99.90
11089;DHT22;5598;48.648;8.908;2024-02-04T09:21:34;8.90;99.90
11089;DHT22;5598;48.648;8.908;2024-02-04T09:24:01;8.90;99.90
11089;DHT22;5598;48.648;8.908;2024-02-04T09:26:28;9.00;99.90
11089;DHT22;5598;48.648;8.908;2024-02-04T09:28:54;9.00;99.90
11089;DHT22;5598;48.648;8.908;2024-02-04T09:31:21;9.00;99.90
11089;DHT22;5598;48.648;8.908;2024-02-04T09:33:48;9.00;99.90
11089;DHT22;5598;48.648;8.908;2024-02-04T09:36:16;9.10;99.90
11089;DHT22;5598;48.648;8.908;2024-02-04T09:38:43;9.20;99.90
11089;DHT22;5598;48.648;8.908;2024-02-04T09:41:09;9.50;99.90
11089;DHT22;5598;48.648;8.908;2024-02-04T09:43:37;9.70;99.90
11089;DHT22;5598;48.648;8.908;2024-02-04T09:46:05;9.90;99.90
11089;DHT22;5598;48.648;8.908;2024-02-04T09:48:33;9.80;99.90
11089;DHT22;5598;48.648;8.908;2024-02-04T09:50:59;9.90;99.90
11089;DHT22;5598;48.648;8.908;2024-02-04T09:53:32;10.10;99.90
11089;DHT22;5598;48.648;8.908;2024-02-04T09:56:02;10.50;99.90
11089;DHT22;5598;48.648;8.908;2024-02-04T09:58:29;10.70;99.90
11089;DHT22;5598;48.648;8.908;2024-02-04T10:00:56;10.50;99.90
11089;DHT22;5598;48.648;8.908;2024-02-04T10:03:24;10.60;99.90
11089;DHT22;5598;48.648;8.908;2024-02-04T10:05:51;11.00;99.90
11089;DHT22;5598;48.648;8.908;2024-02-04T10:08:18;11.10;99.90
11089;DHT22;5598;48.648;8.908;2024-02-04T10:10:47;11.40;99.90
11089;DHT22;5598;48.648;8.908;2024-02-04T10:13:14;11.50;99.90
11089;DHT22;5598;48.648;8.908;2024-02-04T10:15:41;11.30;99.90
11089;DHT22;5598;48.648;8.908;2024-02-04T10:18:08;11.10;99.90
11089;DHT22;5598;48.648;8.908;2024-02-04T10:20:36;11.10;99.90
11089;DHT22;5598;48.648;8.908;2024-02-04T10:23:03;11.10;99.90
11089;DHT22;5598;48.648;8.908;2024-02-04T10:25:30;10.90;99.90
11089;DHT22;5598;48.648;8.908;2024-02-04T10:27:59;10.80;99.90
11089;DHT22;5598;48.648;8.908;2024-02-04T10:30:25;10.70;99.90
11089;DHT22;5598;48.648;8.908;2024-02-04T10:32:53;10.60;99.90
11089;DHT22;5598;48.648;8.908;2024-02-04T10:35:20;10.50;99.90
11089;DHT22;5598;48.648;8.908;2024-02-04T10:37:48;10.70;99.90
11089;DHT22;5598;48.648;8.908;2024-02-04T10:40:15;10.80;99.90
11089;DHT22;5598;48.648;8.908;2024-02-04T10:42:42;10.60;99.90
11089;DHT22;5598;48.648;8.908;2024-02-04T10:45:11;10.60;99.90
11089;DHT22;5598;48.648;8.908;2024-02-04T10:47:40;10.70;99.90
11089;DHT22;5598;48.648;8.908;2024-02-04T10:50:09;11.00;99.90
11089;DHT22;5598;48.648;8.908;2024-02-04T10:52:37;11.00;99.90
11089;DHT22;5598;48.648;8.908;2024-02-04T10:55:07;11.00;99.90
11089;DHT22;5598;48.648;8.908;2024-02-04T10:57:35;11.00;99.90
11089;DHT22;5598;48.648;8.908;2024-02-04T11:00:02;11.20;99.90
11089;DHT22;5598;48.648;8.908;2024-02-04T11:02:35;11.30;99.90
11089;DHT22;5598;48.648;8.908;2024-02-04T11:05:03;11.50;99.90
11089;DHT22;5598;48.648;8.908;2024-02-04T11:07:32;11.30;99.90
11089;DHT22;5598;48.648;8.908;2024-02-04T11:10:00;11.20;99.90
11089;DHT22;5598;48.648;8.908;2024-02-04T11:12:29;11.20;99.90
11089;DHT22;5598;48.648;8.908;2024-02-04T11:15:03;11.20;99.90
11089;DHT22;5598;48.648;8.908;2024-02-04T11:17:50;11.50;99.90
11089;DHT22;5598;48.648;8.908;2024-02-04T11:20:35;11.40;99.90
11089;DHT22;5598;48.648;8.908;2024-02-04T11:23:15;11.60;99.90
11089;DHT22;5598;48.648;8.908;2024-02-04T11:25:48;12.10;99.90
11089;DHT22;5598;48.648;8.908;2024-02-04T11:28:16;12.40;99.90
11089;DHT22;5598;48.648;8.908;2024-02-04T11:30:44;12.80;99.90
11089;DHT22;5598;48.648;8.908;2024-02-04T11:33:13;13.30;99.90
11089;DHT22;5598;48.648;8.908;2024-02-04T11:35:43;13.60;99.90
11089;DHT22;5598;48.648;8.908;2024-02-04T11:38:10;14.10;99.40
11089;DHT22;5598;48.648;8.908;2024-02-04T11:40:39;14.00;98.00
11089;DHT22;5598;48.648;8.908;2024-02-04T11:43:07;13.90;98.20
11089;DHT22;5598;48.648;8.908;2024-02-04T11:45:40;13.80;98.20
11089;DHT22;5598;48.648;8.908;2024-02-04T11:48:08;13.80;98.60
11089;DHT22;5598;48.648;8.908;2024-02-04T11:50:37;13.80;99.30
11089;DHT22;5598;48.648;8.908;2024-02-04T11:53:08;13.60;98.40
11089;DHT22;5598;48.648;8.908;2024-02-04T11:55:36;13.20;99.70
11089;DHT22;5598;48.648;8.908;2024-02-04T11:58:04;13.20;99.30
11089;DHT22;5598;48.648;8.908;2024-02-04T12:00:32;13.10;99.80
11089;DHT22;5598;48.648;8.908;2024-02-04T12:03:00;12.90;99.90
11089;DHT22;5598;48.648;8.908;2024-02-04T12:05:28;12.80;99.90
11089;DHT22;5598;48.648;8.908;2024-02-04T12:07:57;13.00;99.50
11089;DHT22;5598;48.648;8.908;2024-02-04T12:10:24;13.20;99.90
11089;DHT22;5598;48.648;8.908;2024-02-04T12:12:52;13.50;99.90
11089;DHT22;5598;48.648;8.908;2024-02-04T12:15:19;13.60;99.10
11089;DHT22;5598;48.648;8.908;2024-02-04T12:17:46;13.20;98.90
11089;DHT22;5598;48.648;8.908;2024-02-04T12:20:13;13.10;99.60
11089;DHT22;5598;48.648;8.908;2024-02-04T12:22:40;12.90;99.20
11089;DHT22;5598;48.648;8.908;2024-02-04T12:25:08;12.80;99.50
11089;DHT22;5598;48.648;8.908;2024-02-04T12:27:36;12.70;99.80
11089;DHT22;5598;48.648;8.908;2024-02-04T12:30:03;12.60;99.60
11089;DHT22;5598;48.648;8.908;2024-02-04T12:32:31;12.60;99.90
11089;DHT22;5598;48.648;8.908;2024-02-04T12:34:57;12.70;99.90
11089;DHT22;5598;48.648;8.908;2024-02-04T12:37:24;12.40;99.20
11089;DHT22;5598;48.648;8.908;2024-02-04T12:39:52;12.20;99.90
11089;DHT22;5598;48.648;8.908;2024-02-04T12:42:20;12.10;99.90
11089;DHT22;5598;48.648;8.908;2024-02-04T12:44:47;12.10;99.90
11089;DHT22;5598;48.648;8.908;2024-02-04T12:47:18;11.90;99.70
11089;DHT22;5598;48.648;8.908;2024-02-04T12:49:45;11.80;99.90
11089;DHT22;5598;48.648;8.908;2024-02-04T12:52:12;11.80;99.90
11089;DHT22;5598;48.648;8.908;2024-02-04T12:54:43;11.80;99.90
11089;DHT22;5598;48.648;8.908;2024-02-04T12:57:10;11.60;99.90
11089;DHT22;5598;48.648;8.908;2024-02-04T12:59:38;11.40;99.90
11089;DHT22;5598;48.648;8.908;2024-02-04T13:02:07;11.40;99.90
11089;DHT22;5598;48.648;8.908;2024-02-04T13:04:34;11.40;99.90
11089;DHT22;5598;48.648;8.908;2024-02-04T13:07:01;11.40;99.90
11089;DHT22;5598;48.648;8.908;2024-02-04T13:09:28;11.30;99.90
11089;DHT22;5598;48.648;8.908;2024-02-04T13:12:03;11.40;99.90
11089;DHT22;5598;48.648;8.908;2024-02-04T13:14:30;11.30;99.90
11089;DHT22;5598;48.648;8.908;2024-02-04T13:16:58;11.30;99.90
11089;DHT22;5598;48.648;8.908;2024-02-04T13:19:31;11.30;99.90
11089;DHT22;5598;48.648;8.908;2024-02-04T13:21:58;11.20;99.90
11089;DHT22;5598;48.648;8.908;2024-02-04T13:24:27;11.20;99.90
11089;DHT22;5598;48.648;8.908;2024-02-04T13:26:54;11.10;99.90
11089;DHT22;5598;48.648;8.908;2024-02-04T13:29:21;11.00;99.90
11089;DHT22;5598;48.648;8.908;2024-02-04T13:31:47;11.00;99.90
11089;DHT22;5598;48.648;8.908;2024-02-04T13:34:16;10.90;99.90
11089;DHT22;5598;48.648;8.908;2024-02-04T13:36:43;10.70;99.90
11089;DHT22;5598;48.648;8.908;2024-02-04T13:39:10;10.60;99.90
11089;DHT22;5598;48.648;8.908;2024-02-04T13:41:38;10.50;99.90
11089;DHT22;5598;48.648;8.908;2024-02-04T13:44:05;10.50;99.90
11089;DHT22;5598;48.648;8.908;2024-02-04T13:46:32;10.50;99.90
11089;DHT22;5598;48.648;8.908;2024-02-04T13:48:59;10.60;99.90
11089;DHT22;5598;48.648;8.908;2024-02-04T13:51:27;10.60;99.90
11089;DHT22;5598;48.648;8.908;2024-02-04T13:53:54;10.60;99.90
11089;DHT22;5598;48.648;8.908;2024-02-04T13:56:21;10.60;99.90
11089;DHT22;5598;48.648;8.908;2024-02-04T13:58:48;10.40;99.90
11089;DHT22;5598;48.648;8.908;2024-02-04T14:01:15;10.40;99.90
11089;DHT22;5598;48.648;8.908;2024-02-04T14:03:43;10.40;99.90
11089;DHT22;5598;48.648;8.908;2024-02-04T14:06:10;10.30;99.90
11089;DHT22;5598;48.648;8.908;2024-02-04T14:08:39;10.20;99.90
11089;DHT22;5598;48.648;8.908;2024-02-04T14:11:06;10.20;99.90
11089;DHT22;5598;48.648;8.908;2024-02-04T14:13:35;10.20;99.90
11089;DHT22;5598;48.648;8.908;2024-02-04T14:16:02;10.20;99.90
11089;DHT22;5598;48.648;8.908;2024-02-04T14:18:29;10.00;99.90
11089;DHT22;5598;48.648;8.908;2024-02-04T14:20:56;9.90;99.90
11089;DHT22;5598;48.648;8.908;2024-02-04T14:23:23;10.00;99.90
11089;DHT22;5598;48.648;8.908;2024-02-04T14:25:51;10.10;99.90
11089;DHT22;5598;48.648;8.908;2024-02-04T14:28:18;10.00;99.90
11089;DHT22;5598;48.648;8.908;2024-02-04T14:30:46;9.90;99.90
11089;DHT22;5598;48.648;8.908;2024-02-04T14:33:12;9.90;99.90
11089;DHT22;5598;48.648;8.908;2024-02-04T14:35:39;9.90;99.90
11089;DHT22;5598;48.648;8.908;2024-02-04T14:38:06;9.90;99.90
11089;DHT22;5598;48.648;8.908;2024-02-04T14:40:33;9.80;99.90
11089;DHT22;5598;48.648;8.908;2024-02-04T14:43:01;9.80;99.90
11089;DHT22;5598;48.648;8.908;2024-02-04T14:45:28;9.80;99.90
11089;DHT22;5598;48.648;8.908;2024-02-04T14:47:55;9.80;99.90
11089;DHT22;5598;48.648;8.908;2024-02-04T14:50:25;9.80;99.90
11089;DHT22;5598;48.648;8.908;2024-02-04T14:52:52;9.80;99.90
11089;DHT22;5598;48.648;8.908;2024-02-04T14:55:19;9.70;99.90
11089;DHT22;5598;48.648;8.908;2024-02-04T14:57:48;9.70;99.90
11089;DHT22;5598;48.648;8.908;2024-02-04T15:00:17;9.70;99.90
11089;DHT22;5598;48.648;8.908;2024-02-04T15:02:48;9.70;99.90
11089;DHT22;5598;48.648;8.908;2024-02-04T15:05:19;9.70;99.90
11089;DHT22;5598;48.648;8.908;2024-02-04T15:07:47;9.70;99.90
11089;DHT22;5598;48.648;8.908;2024-02-04T15:10:14;9.60;99.90
11089;DHT22;5598;48.648;8.908;2024-02-04T15:12:42;9.70;99.90
11089;DHT22;5598;48.648;8.908;2024-02-04T15:15:14;9.70;99.90
11089;DHT22;5598;48.648;8.908;2024-02-04T15:17:46;9.60;99.90
11089;DHT22;5598;48.648;8.908;2024-02-04T15:20:14;9.60;99.90
11089;DHT22;5598;48.648;8.908;2024-02-04T15:22:43;9.60;99.90
11089;DHT22;5598;48.648;8.908;2024-02-04T15:25:11;9.50;99.90
11089;DHT22;5598;48.648;8.908;2024-02-04T15:27:42;9.50;99.90
11089;DHT22;5598;48.648;8.908;2024-02-04T15:30:13;9.40;99.90
11089;DHT22;5598;48.648;8.908;2024-02-04T15:32:43;9.40;99.90
11089;DHT22;5598;48.648;8.908;2024-02-04T15:35:15;9.40;99.90
11089;DHT22;5598;48.648;8.908;2024-02-04T15:37:42;9.30;99.90
11089;DHT22;5598;48.648;8.908;2024-02-04T15:40:12;9.30;99.90
11089;DHT22;5598;48.648;8.908;2024-02-04T15:42:40;9.30;99.90
11089;DHT22;5598;48.648;8.908;2024-02-04T15:45:10;9.30;99.90
11089;DHT22;5598;48.648;8.908;2024-02-04T15:47:44;9.20;99.90
11089;DHT22;5598;48.648;8.908;2024-02-04T15:50:17;9.20;99.90
11089;DHT22;5598;48.648;8.908;2024-02-04T15:52:45;9.20;99.90
11089;DHT22;5598;48.648;8.908;2024-02-04T15:55:14;9.10;99.90
11089;DHT22;5598;48.648;8.908;2024-02-04T15:57:49;9.10;99.90
11089;DHT22;5598;48.648;8.908;2024-02-04T16:00:18;9.10;99.90